sensor_id;sensor_type;location;lat;lon;timestamp;P1;durP1;ratioP1;P2;durP2;ratioP2
70838;SDS011;58464;52.298;4.852;2023-07-31T00:02:14;15.27;;;3.55;;
70838;SDS011;58464;52.298;4.852;2023-07-31T00:04:39;18.67;;;3.30;;
70838;SDS011;58464;52.298;4.852;2023-07-31T00:07:05;17.73;;;3.05;;
70838;SDS011;58464;52.298;4.852;2023-07-31T00:09:31;15.18;;;3.40;;
70838;SDS011;58464;52.298;4.852;2023-07-31T00:11:56;8.38;;;2.30;;
70838;SDS011;58464;52.298;4.852;2023-07-31T00:14:21;11.77;;;2.60;;
70838;SDS011;58464;52.298;4.852;2023-07-31T00:16:47;17.33;;;3.37;;
70838;SDS011;58464;52.298;4.852;2023-07-31T00:19:12;13.17;;;2.60;;
70838;SDS011;58464;52.298;4.852;2023-07-31T00:21:37;12.43;;;2.83;;
70838;SDS011;58464;52.298;4.852;2023-07-31T00:24:02;13.70;;;3.60;;
70838;SDS011;58464;52.298;4.852;2023-07-31T00:26:28;15.82;;;3.65;;
70838;SDS011;58464;52.298;4.852;2023-07-31T00:28:54;16.25;;;3.78;;
70838;SDS011;58464;52.298;4.852;2023-07-31T00:31:19;20.90;;;4.70;;
70838;SDS011;58464;52.298;4.852;2023-07-31T00:33:45;19.40;;;4.78;;
70838;SDS011;58464;52.298;4.852;2023-07-31T00:36:10;11.03;;;3.30;;
70838;SDS011;58464;52.298;4.852;2023-07-31T00:38:35;11.40;;;2.55;;
70838;SDS011;58464;52.298;4.852;2023-07-31T00:41:00;19.93;;;4.13;;
70838;SDS011;58464;52.298;4.852;2023-07-31T00:43:26;15.93;;;3.17;;
70838;SDS011;58464;52.298;4.852;2023-07-31T00:45:51;16.87;;;4.47;;
70838;SDS011;58464;52.298;4.852;2023-07-31T00:48:16;19.13;;;4.43;;
70838;SDS011;58464;52.298;4.852;2023-07-31T00:50:41;14.02;;;3.63;;
70838;SDS011;58464;52.298;4.852;2023-07-31T00:53:07;19.90;;;4.35;;
70838;SDS011;58464;52.298;4.852;2023-07-31T00:55:32;25.65;;;4.30;;
70838;SDS011;58464;52.298;4.852;2023-07-31T00:57:57;16.20;;;3.97;;
70838;SDS011;58464;52.298;4.852;2023-07-31T01:00:23;23.90;;;4.80;;
70838;SDS011;58464;52.298;4.852;2023-07-31T01:02:49;15.60;;;4.10;;
70838;SDS011;58464;52.298;4.852;2023-07-31T01:05:14;21.58;;;4.05;;
70838;SDS011;58464;52.298;4.852;2023-07-31T01:07:56;17.40;;;4.88;;
70838;SDS011;58464;52.298;4.852;2023-07-31T01:10:26;19.88;;;4.78;;
70838;SDS011;58464;52.298;4.852;2023-07-31T01:12:54;19.70;;;4.40;;
70838;SDS011;58464;52.298;4.852;2023-07-31T01:15:21;28.90;;;6.35;;
70838;SDS011;58464;52.298;4.852;2023-07-31T01:17:46;23.13;;;6.23;;
70838;SDS011;58464;52.298;4.852;2023-07-31T01:20:13;15.07;;;4.82;;
70838;SDS011;58464;52.298;4.852;2023-07-31T01:27:51;26.33;;;7.38;;
70838;SDS011;58464;52.298;4.852;2023-07-31T01:30:20;19.15;;;5.30;;
70838;SDS011;58464;52.298;4.852;2023-07-31T01:32:47;26.40;;;5.90;;
70838;SDS011;58464;52.298;4.852;2023-07-31T01:35:13;21.25;;;5.30;;
70838;SDS011;58464;52.298;4.852;2023-07-31T01:37:39;24.55;;;5.78;;
70838;SDS011;58464;52.298;4.852;2023-07-31T01:40:04;19.97;;;5.60;;
70838;SDS011;58464;52.298;4.852;2023-07-31T01:42:31;30.50;;;6.03;;
70838;SDS011;58464;52.298;4.852;2023-07-31T01:44:56;32.55;;;6.30;;
70838;SDS011;58464;52.298;4.852;2023-07-31T01:47:21;32.63;;;6.63;;
70838;SDS011;58464;52.298;4.852;2023-07-31T01:49:51;26.00;;;5.88;;
70838;SDS011;58464;52.298;4.852;2023-07-31T01:52:16;27.20;;;6.18;;
70838;SDS011;58464;52.298;4.852;2023-07-31T01:54:41;21.17;;;5.23;;
70838;SDS011;58464;52.298;4.852;2023-07-31T01:57:07;20.87;;;5.63;;
70838;SDS011;58464;52.298;4.852;2023-07-31T01:59:32;27.98;;;6.60;;
70838;SDS011;58464;52.298;4.852;2023-07-31T02:01:57;19.10;;;5.22;;
70838;SDS011;58464;52.298;4.852;2023-07-31T02:04:22;27.63;;;7.43;;
70838;SDS011;58464;52.298;4.852;2023-07-31T02:06:48;19.52;;;5.85;;
70838;SDS011;58464;52.298;4.852;2023-07-31T02:09:14;30.50;;;7.00;;
70838;SDS011;58464;52.298;4.852;2023-07-31T02:11:39;21.73;;;5.85;;
70838;SDS011;58464;52.298;4.852;2023-07-31T02:14:05;27.80;;;6.90;;
70838;SDS011;58464;52.298;4.852;2023-07-31T02:16:30;26.23;;;6.25;;
70838;SDS011;58464;52.298;4.852;2023-07-31T02:18:55;28.90;;;6.20;;
70838;SDS011;58464;52.298;4.852;2023-07-31T02:21:20;32.75;;;6.38;;
70838;SDS011;58464;52.298;4.852;2023-07-31T02:23:46;28.83;;;7.07;;
70838;SDS011;58464;52.298;4.852;2023-07-31T02:26:11;32.07;;;8.70;;
70838;SDS011;58464;52.298;4.852;2023-07-31T02:28:36;27.67;;;6.30;;
70838;SDS011;58464;52.298;4.852;2023-07-31T02:31:02;36.83;;;7.63;;
70838;SDS011;58464;52.298;4.852;2023-07-31T02:33:27;25.85;;;6.15;;
70838;SDS011;58464;52.298;4.852;2023-07-31T02:35:53;29.10;;;7.78;;
70838;SDS011;58464;52.298;4.852;2023-07-31T02:38:18;27.67;;;6.70;;
70838;SDS011;58464;52.298;4.852;2023-07-31T02:40:43;22.73;;;6.10;;
70838;SDS011;58464;52.298;4.852;2023-07-31T02:43:10;22.25;;;5.97;;
70838;SDS011;58464;52.298;4.852;2023-07-31T02:45:36;22.60;;;6.22;;
70838;SDS011;58464;52.298;4.852;2023-07-31T02:48:01;27.25;;;7.68;;
70838;SDS011;58464;52.298;4.852;2023-07-31T02:50:26;29.73;;;7.03;;
70838;SDS011;58464;52.298;4.852;2023-07-31T02:52:52;28.75;;;6.80;;
70838;SDS011;58464;52.298;4.852;2023-07-31T02:55:18;38.35;;;8.02;;
70838;SDS011;58464;52.298;4.852;2023-07-31T02:57:43;26.87;;;7.23;;
70838;SDS011;58464;52.298;4.852;2023-07-31T03:00:08;23.70;;;6.20;;
70838;SDS011;58464;52.298;4.852;2023-07-31T03:02:34;20.67;;;6.32;;
70838;SDS011;58464;52.298;4.852;2023-07-31T03:05:00;25.63;;;5.53;;
70838;SDS011;58464;52.298;4.852;2023-07-31T03:07:26;25.00;;;6.50;;
70838;SDS011;58464;52.298;4.852;2023-07-31T03:09:51;22.23;;;6.87;;
70838;SDS011;58464;52.298;4.852;2023-07-31T03:12:16;31.43;;;8.40;;
70838;SDS011;58464;52.298;4.852;2023-07-31T03:14:41;27.50;;;6.13;;
70838;SDS011;58464;52.298;4.852;2023-07-31T03:17:07;29.83;;;6.72;;
70838;SDS011;58464;52.298;4.852;2023-07-31T03:19:32;28.20;;;6.43;;
70838;SDS011;58464;52.298;4.852;2023-07-31T03:21:59;23.75;;;6.72;;
70838;SDS011;58464;52.298;4.852;2023-07-31T03:24:26;31.02;;;6.82;;
70838;SDS011;58464;52.298;4.852;2023-07-31T03:26:51;32.13;;;6.25;;
70838;SDS011;58464;52.298;4.852;2023-07-31T03:29:16;26.80;;;6.30;;
70838;SDS011;58464;52.298;4.852;2023-07-31T03:31:42;21.67;;;6.53;;
70838;SDS011;58464;52.298;4.852;2023-07-31T03:34:07;21.73;;;6.07;;
70838;SDS011;58464;52.298;4.852;2023-07-31T03:36:32;25.50;;;6.10;;
70838;SDS011;58464;52.298;4.852;2023-07-31T03:38:57;29.33;;;6.53;;
70838;SDS011;58464;52.298;4.852;2023-07-31T03:41:23;38.10;;;7.97;;
70838;SDS011;58464;52.298;4.852;2023-07-31T03:43:49;29.30;;;6.77;;
70838;SDS011;58464;52.298;4.852;2023-07-31T03:46:16;28.65;;;6.97;;
70838;SDS011;58464;52.298;4.852;2023-07-31T03:48:41;29.50;;;7.30;;
70838;SDS011;58464;52.298;4.852;2023-07-31T03:51:06;34.25;;;7.10;;
70838;SDS011;58464;52.298;4.852;2023-07-31T03:53:32;27.47;;;6.60;;
70838;SDS011;58464;52.298;4.852;2023-07-31T03:55:57;31.30;;;7.30;;
70838;SDS011;58464;52.298;4.852;2023-07-31T03:58:22;29.58;;;7.72;;
70838;SDS011;58464;52.298;4.852;2023-07-31T04:00:48;32.17;;;7.78;;
70838;SDS011;58464;52.298;4.852;2023-07-31T04:03:13;32.35;;;7.00;;
70838;SDS011;58464;52.298;4.852;2023-07-31T04:05:38;33.78;;;6.93;;
70838;SDS011;58464;52.298;4.852;2023-07-31T04:08:04;27.52;;;5.90;;
70838;SDS011;58464;52.298;4.852;2023-07-31T04:10:30;31.20;;;6.77;;
70838;SDS011;58464;52.298;4.852;2023-07-31T04:12:58;19.10;;;5.30;;
70838;SDS011;58464;52.298;4.852;2023-07-31T04:15:23;35.70;;;6.73;;
70838;SDS011;58464;52.298;4.852;2023-07-31T04:17:48;23.23;;;5.07;;
70838;SDS011;58464;52.298;4.852;2023-07-31T04:20:13;26.83;;;5.90;;
70838;SDS011;58464;52.298;4.852;2023-07-31T04:22:39;28.63;;;7.40;;
70838;SDS011;58464;52.298;4.852;2023-07-31T04:25:04;30.13;;;7.20;;
70838;SDS011;58464;52.298;4.852;2023-07-31T04:27:29;33.28;;;7.22;;
70838;SDS011;58464;52.298;4.852;2023-07-31T04:29:54;26.37;;;6.43;;
70838;SDS011;58464;52.298;4.852;2023-07-31T04:32:20;25.23;;;6.20;;
70838;SDS011;58464;52.298;4.852;2023-07-31T04:34:46;25.42;;;5.80;;
70838;SDS011;58464;52.298;4.852;2023-07-31T04:37:11;24.70;;;6.13;;
70838;SDS011;58464;52.298;4.852;2023-07-31T04:39:36;24.97;;;5.43;;
70838;SDS011;58464;52.298;4.852;2023-07-31T04:42:01;32.70;;;5.77;;
70838;SDS011;58464;52.298;4.852;2023-07-31T04:44:26;14.38;;;3.63;;
70838;SDS011;58464;52.298;4.852;2023-07-31T04:46:52;20.08;;;4.35;;
70838;SDS011;58464;52.298;4.852;2023-07-31T04:49:17;19.67;;;4.43;;
70838;SDS011;58464;52.298;4.852;2023-07-31T04:51:43;20.13;;;3.60;;
70838;SDS011;58464;52.298;4.852;2023-07-31T04:54:08;18.03;;;4.20;;
70838;SDS011;58464;52.298;4.852;2023-07-31T04:56:33;13.47;;;3.03;;
70838;SDS011;58464;52.298;4.852;2023-07-31T04:58:59;11.23;;;3.20;;
70838;SDS011;58464;52.298;4.852;2023-07-31T05:01:24;10.63;;;3.30;;
70838;SDS011;58464;52.298;4.852;2023-07-31T05:03:50;11.88;;;2.60;;
70838;SDS011;58464;52.298;4.852;2023-07-31T05:06:15;9.30;;;2.30;;
70838;SDS011;58464;52.298;4.852;2023-07-31T05:08:40;9.10;;;2.73;;
70838;SDS011;58464;52.298;4.852;2023-07-31T05:11:05;5.80;;;2.37;;
70838;SDS011;58464;52.298;4.852;2023-07-31T05:13:30;6.53;;;2.00;;
70838;SDS011;58464;52.298;4.852;2023-07-31T05:15:56;6.57;;;2.30;;
70838;SDS011;58464;52.298;4.852;2023-07-31T05:18:21;10.37;;;2.90;;
70838;SDS011;58464;52.298;4.852;2023-07-31T05:20:46;7.70;;;2.25;;
70838;SDS011;58464;52.298;4.852;2023-07-31T05:23:11;4.47;;;1.80;;
70838;SDS011;58464;52.298;4.852;2023-07-31T05:25:37;6.23;;;1.70;;
70838;SDS011;58464;52.298;4.852;2023-07-31T05:28:02;6.00;;;1.73;;
70838;SDS011;58464;52.298;4.852;2023-07-31T05:30:29;3.33;;;1.20;;
70838;SDS011;58464;52.298;4.852;2023-07-31T05:32:54;5.25;;;1.52;;
70838;SDS011;58464;52.298;4.852;2023-07-31T05:35:20;2.17;;;1.30;;
70838;SDS011;58464;52.298;4.852;2023-07-31T05:37:45;3.42;;;0.90;;
70838;SDS011;58464;52.298;4.852;2023-07-31T05:40:10;4.27;;;1.07;;
70838;SDS011;58464;52.298;4.852;2023-07-31T05:42:36;3.75;;;1.05;;
70838;SDS011;58464;52.298;4.852;2023-07-31T05:45:03;2.03;;;0.80;;
70838;SDS011;58464;52.298;4.852;2023-07-31T05:47:29;1.73;;;0.88;;
70838;SDS011;58464;52.298;4.852;2023-07-31T05:49:54;1.83;;;0.77;;
70838;SDS011;58464;52.298;4.852;2023-07-31T05:52:19;1.73;;;0.67;;
70838;SDS011;58464;52.298;4.852;2023-07-31T05:54:44;1.77;;;0.70;;
70838;SDS011;58464;52.298;4.852;2023-07-31T05:57:11;0.65;;;0.55;;
70838;SDS011;58464;52.298;4.852;2023-07-31T05:59:36;4.10;;;0.70;;
70838;SDS011;58464;52.298;4.852;2023-07-31T06:02:01;2.10;;;0.50;;
70838;SDS011;58464;52.298;4.852;2023-07-31T06:04:27;0.82;;;0.80;;
70838;SDS011;58464;52.298;4.852;2023-07-31T06:06:53;1.25;;;0.70;;
70838;SDS011;58464;52.298;4.852;2023-07-31T06:09:18;0.93;;;0.65;;
70838;SDS011;58464;52.298;4.852;2023-07-31T06:11:43;1.40;;;0.90;;
70838;SDS011;58464;52.298;4.852;2023-07-31T06:14:08;1.85;;;1.00;;
70838;SDS011;58464;52.298;4.852;2023-07-31T06:16:34;1.47;;;0.83;;
70838;SDS011;58464;52.298;4.852;2023-07-31T06:18:59;1.65;;;0.82;;
70838;SDS011;58464;52.298;4.852;2023-07-31T06:21:24;1.43;;;0.80;;
70838;SDS011;58464;52.298;4.852;2023-07-31T06:23:50;3.28;;;1.23;;
70838;SDS011;58464;52.298;4.852;2023-07-31T06:26:15;3.03;;;1.07;;
70838;SDS011;58464;52.298;4.852;2023-07-31T06:28:41;3.93;;;1.10;;
70838;SDS011;58464;52.298;4.852;2023-07-31T06:31:06;1.70;;;0.80;;
70838;SDS011;58464;52.298;4.852;2023-07-31T06:33:32;0.38;;;0.38;;
70838;SDS011;58464;52.298;4.852;2023-07-31T06:35:57;1.30;;;0.90;;
70838;SDS011;58464;52.298;4.852;2023-07-31T06:38:24;1.70;;;0.90;;
70838;SDS011;58464;52.298;4.852;2023-07-31T06:40:50;1.20;;;0.70;;
70838;SDS011;58464;52.298;4.852;2023-07-31T06:43:15;3.40;;;0.97;;
70838;SDS011;58464;52.298;4.852;2023-07-31T06:45:41;1.50;;;0.80;;
70838;SDS011;58464;52.298;4.852;2023-07-31T06:48:06;2.05;;;0.75;;
70838;SDS011;58464;52.298;4.852;2023-07-31T06:50:31;1.67;;;0.73;;
70838;SDS011;58464;52.298;4.852;2023-07-31T06:52:57;2.10;;;0.60;;
70838;SDS011;58464;52.298;4.852;2023-07-31T06:55:22;1.57;;;0.77;;
70838;SDS011;58464;52.298;4.852;2023-07-31T06:57:48;1.60;;;0.80;;
70838;SDS011;58464;52.298;4.852;2023-07-31T07:00:13;1.77;;;0.90;;
70838;SDS011;58464;52.298;4.852;2023-07-31T07:02:39;2.58;;;0.70;;
70838;SDS011;58464;52.298;4.852;2023-07-31T07:05:04;1.63;;;0.80;;
70838;SDS011;58464;52.298;4.852;2023-07-31T07:07:29;1.70;;;0.87;;
70838;SDS011;58464;52.298;4.852;2023-07-31T07:09:55;2.40;;;1.07;;
70838;SDS011;58464;52.298;4.852;2023-07-31T07:12:20;4.17;;;1.17;;
70838;SDS011;58464;52.298;4.852;2023-07-31T07:14:45;2.65;;;1.27;;
70838;SDS011;58464;52.298;4.852;2023-07-31T07:17:12;5.03;;;1.42;;
70838;SDS011;58464;52.298;4.852;2023-07-31T07:19:40;4.55;;;1.05;;
70838;SDS011;58464;52.298;4.852;2023-07-31T07:22:05;5.90;;;1.40;;
70838;SDS011;58464;52.298;4.852;2023-07-31T07:24:31;6.57;;;1.50;;
70838;SDS011;58464;52.298;4.852;2023-07-31T07:26:56;4.57;;;1.40;;
70838;SDS011;58464;52.298;4.852;2023-07-31T07:29:21;5.38;;;1.65;;
70838;SDS011;58464;52.298;4.852;2023-07-31T07:31:47;6.03;;;1.90;;
70838;SDS011;58464;52.298;4.852;2023-07-31T07:34:12;4.22;;;1.42;;
70838;SDS011;58464;52.298;4.852;2023-07-31T07:36:37;11.10;;;2.17;;
70838;SDS011;58464;52.298;4.852;2023-07-31T07:39:02;10.53;;;2.63;;
70838;SDS011;58464;52.298;4.852;2023-07-31T07:41:27;11.27;;;2.57;;
70838;SDS011;58464;52.298;4.852;2023-07-31T07:43:53;9.50;;;2.23;;
70838;SDS011;58464;52.298;4.852;2023-07-31T07:46:18;7.07;;;1.93;;
70838;SDS011;58464;52.298;4.852;2023-07-31T07:48:43;6.27;;;2.03;;
70838;SDS011;58464;52.298;4.852;2023-07-31T07:51:08;7.68;;;2.47;;
70838;SDS011;58464;52.298;4.852;2023-07-31T07:53:34;4.43;;;1.50;;
70838;SDS011;58464;52.298;4.852;2023-07-31T07:55:59;5.27;;;1.73;;
70838;SDS011;58464;52.298;4.852;2023-07-31T07:58:24;8.63;;;2.10;;
70838;SDS011;58464;52.298;4.852;2023-07-31T08:00:50;7.93;;;1.75;;
70838;SDS011;58464;52.298;4.852;2023-07-31T08:03:15;5.03;;;1.73;;
70838;SDS011;58464;52.298;4.852;2023-07-31T08:05:42;3.75;;;1.35;;
70838;SDS011;58464;52.298;4.852;2023-07-31T08:08:07;9.13;;;2.33;;
70838;SDS011;58464;52.298;4.852;2023-07-31T08:10:32;3.97;;;1.40;;
70838;SDS011;58464;52.298;4.852;2023-07-31T08:12:58;5.93;;;1.63;;
70838;SDS011;58464;52.298;4.852;2023-07-31T08:15:23;7.80;;;1.83;;
70838;SDS011;58464;52.298;4.852;2023-07-31T08:17:48;8.23;;;1.92;;
70838;SDS011;58464;52.298;4.852;2023-07-31T08:20:13;6.80;;;1.98;;
70838;SDS011;58464;52.298;4.852;2023-07-31T08:22:39;5.65;;;2.25;;
70838;SDS011;58464;52.298;4.852;2023-07-31T08:25:05;5.63;;;1.50;;
70838;SDS011;58464;52.298;4.852;2023-07-31T08:27:31;15.20;;;2.45;;
70838;SDS011;58464;52.298;4.852;2023-07-31T08:29:57;9.20;;;1.98;;
70838;SDS011;58464;52.298;4.852;2023-07-31T08:32:23;10.93;;;2.43;;
70838;SDS011;58464;52.298;4.852;2023-07-31T08:34:48;7.82;;;1.92;;
70838;SDS011;58464;52.298;4.852;2023-07-31T08:37:14;10.68;;;1.73;;
70838;SDS011;58464;52.298;4.852;2023-07-31T08:39:39;4.05;;;1.45;;
70838;SDS011;58464;52.298;4.852;2023-07-31T08:42:07;6.93;;;2.13;;
70838;SDS011;58464;52.298;4.852;2023-07-31T08:44:32;5.70;;;1.80;;
70838;SDS011;58464;52.298;4.852;2023-07-31T08:46:58;4.47;;;1.17;;
70838;SDS011;58464;52.298;4.852;2023-07-31T08:49:24;1.73;;;1.10;;
70838;SDS011;58464;52.298;4.852;2023-07-31T08:51:49;7.40;;;1.83;;
70838;SDS011;58464;52.298;4.852;2023-07-31T08:54:15;8.90;;;2.17;;
70838;SDS011;58464;52.298;4.852;2023-07-31T08:56:41;5.88;;;1.70;;
70838;SDS011;58464;52.298;4.852;2023-07-31T08:59:07;4.78;;;1.83;;
70838;SDS011;58464;52.298;4.852;2023-07-31T09:01:34;11.13;;;2.67;;
70838;SDS011;58464;52.298;4.852;2023-07-31T09:04:01;13.52;;;2.70;;
70838;SDS011;58464;52.298;4.852;2023-07-31T09:06:26;9.73;;;2.35;;
70838;SDS011;58464;52.298;4.852;2023-07-31T09:08:53;20.33;;;4.15;;
70838;SDS011;58464;52.298;4.852;2023-07-31T09:11:18;11.80;;;1.92;;
70838;SDS011;58464;52.298;4.852;2023-07-31T09:13:44;14.25;;;2.20;;
70838;SDS011;58464;52.298;4.852;2023-07-31T09:16:10;13.98;;;2.38;;
70838;SDS011;58464;52.298;4.852;2023-07-31T09:18:54;14.07;;;3.03;;
70838;SDS011;58464;52.298;4.852;2023-07-31T09:21:23;13.75;;;2.45;;
70838;SDS011;58464;52.298;4.852;2023-07-31T09:23:49;19.83;;;3.45;;
70838;SDS011;58464;52.298;4.852;2023-07-31T09:26:30;18.45;;;3.92;;
70838;SDS011;58464;52.298;4.852;2023-07-31T09:28:56;12.23;;;2.72;;
70838;SDS011;58464;52.298;4.852;2023-07-31T09:31:31;15.45;;;2.30;;
70838;SDS011;58464;52.298;4.852;2023-07-31T09:33:57;15.25;;;3.00;;
70838;SDS011;58464;52.298;4.852;2023-07-31T09:36:22;12.37;;;2.90;;
70838;SDS011;58464;52.298;4.852;2023-07-31T09:38:47;17.40;;;3.37;;
70838;SDS011;58464;52.298;4.852;2023-07-31T09:41:12;20.42;;;3.90;;
70838;SDS011;58464;52.298;4.852;2023-07-31T09:43:39;16.15;;;2.95;;
70838;SDS011;58464;52.298;4.852;2023-07-31T09:46:04;14.27;;;3.90;;
70838;SDS011;58464;52.298;4.852;2023-07-31T09:48:38;13.45;;;2.63;;
70838;SDS011;58464;52.298;4.852;2023-07-31T09:51:03;10.00;;;2.05;;
70838;SDS011;58464;52.298;4.852;2023-07-31T09:53:29;11.52;;;3.35;;
70838;SDS011;58464;52.298;4.852;2023-07-31T09:55:55;13.27;;;2.65;;
70838;SDS011;58464;52.298;4.852;2023-07-31T09:58:21;14.40;;;2.78;;
70838;SDS011;58464;52.298;4.852;2023-07-31T10:00:47;13.02;;;3.40;;
70838;SDS011;58464;52.298;4.852;2023-07-31T10:03:12;11.88;;;2.80;;
70838;SDS011;58464;52.298;4.852;2023-07-31T10:05:40;16.83;;;3.03;;
70838;SDS011;58464;52.298;4.852;2023-07-31T10:08:06;15.48;;;2.38;;
70838;SDS011;58464;52.298;4.852;2023-07-31T10:10:32;12.98;;;2.97;;
70838;SDS011;58464;52.298;4.852;2023-07-31T10:12:57;20.10;;;3.50;;
70838;SDS011;58464;52.298;4.852;2023-07-31T10:15:23;20.45;;;4.18;;
70838;SDS011;58464;52.298;4.852;2023-07-31T10:17:50;25.60;;;4.75;;
70838;SDS011;58464;52.298;4.852;2023-07-31T10:20:16;15.32;;;3.03;;
70838;SDS011;58464;52.298;4.852;2023-07-31T10:22:41;13.40;;;3.40;;
70838;SDS011;58464;52.298;4.852;2023-07-31T10:25:07;10.52;;;2.88;;
70838;SDS011;58464;52.298;4.852;2023-07-31T10:27:33;15.05;;;3.03;;
70838;SDS011;58464;52.298;4.852;2023-07-31T10:29:59;15.02;;;2.63;;
70838;SDS011;58464;52.298;4.852;2023-07-31T10:32:25;22.77;;;2.53;;
70838;SDS011;58464;52.298;4.852;2023-07-31T10:34:51;14.90;;;2.90;;
70838;SDS011;58464;52.298;4.852;2023-07-31T10:40:11;9.75;;;2.92;;
70838;SDS011;58464;52.298;4.852;2023-07-31T10:42:35;21.08;;;3.97;;
70838;SDS011;58464;52.298;4.852;2023-07-31T10:45:07;12.23;;;2.72;;
70838;SDS011;58464;52.298;4.852;2023-07-31T10:48:06;18.23;;;3.53;;
70838;SDS011;58464;52.298;4.852;2023-07-31T10:50:25;15.80;;;3.40;;
70838;SDS011;58464;52.298;4.852;2023-07-31T10:52:52;12.35;;;3.47;;
70838;SDS011;58464;52.298;4.852;2023-07-31T10:57:48;9.07;;;2.40;;
70838;SDS011;58464;52.298;4.852;2023-07-31T11:00:27;16.10;;;2.65;;
70838;SDS011;58464;52.298;4.852;2023-07-31T11:02:57;16.20;;;3.88;;
70838;SDS011;58464;52.298;4.852;2023-07-31T11:05:40;12.55;;;2.90;;
70838;SDS011;58464;52.298;4.852;2023-07-31T11:13:05;16.13;;;3.30;;
70838;SDS011;58464;52.298;4.852;2023-07-31T11:15:31;15.38;;;3.15;;
70838;SDS011;58464;52.298;4.852;2023-07-31T11:17:56;8.88;;;2.13;;
70838;SDS011;58464;52.298;4.852;2023-07-31T11:20:23;18.55;;;4.10;;
70838;SDS011;58464;52.298;4.852;2023-07-31T11:22:50;9.65;;;2.90;;
70838;SDS011;58464;52.298;4.852;2023-07-31T11:25:16;11.73;;;2.63;;
70838;SDS011;58464;52.298;4.852;2023-07-31T11:27:41;18.73;;;3.22;;
70838;SDS011;58464;52.298;4.852;2023-07-31T11:30:08;15.15;;;3.85;;
70838;SDS011;58464;52.298;4.852;2023-07-31T11:32:35;17.45;;;4.22;;
70838;SDS011;58464;52.298;4.852;2023-07-31T11:35:00;9.40;;;2.85;;
70838;SDS011;58464;52.298;4.852;2023-07-31T11:37:38;8.63;;;2.20;;
70838;SDS011;58464;52.298;4.852;2023-07-31T11:40:03;9.45;;;2.80;;
70838;SDS011;58464;52.298;4.852;2023-07-31T11:42:29;10.30;;;2.17;;
70838;SDS011;58464;52.298;4.852;2023-07-31T11:44:54;13.30;;;2.92;;
70838;SDS011;58464;52.298;4.852;2023-07-31T11:47:20;15.10;;;3.80;;
70838;SDS011;58464;52.298;4.852;2023-07-31T11:49:46;10.00;;;2.63;;
70838;SDS011;58464;52.298;4.852;2023-07-31T11:52:11;9.57;;;2.70;;
70838;SDS011;58464;52.298;4.852;2023-07-31T11:54:37;15.63;;;2.33;;
70838;SDS011;58464;52.298;4.852;2023-07-31T11:57:02;11.65;;;2.80;;
70838;SDS011;58464;52.298;4.852;2023-07-31T11:59:28;7.60;;;2.22;;
70838;SDS011;58464;52.298;4.852;2023-07-31T12:01:53;8.85;;;1.95;;
70838;SDS011;58464;52.298;4.852;2023-07-31T12:04:20;4.53;;;2.20;;
70838;SDS011;58464;52.298;4.852;2023-07-31T12:06:47;15.90;;;2.92;;
70838;SDS011;58464;52.298;4.852;2023-07-31T12:09:14;11.88;;;3.22;;
70838;SDS011;58464;52.298;4.852;2023-07-31T12:11:43;9.93;;;2.72;;
70838;SDS011;58464;52.298;4.852;2023-07-31T12:14:17;12.13;;;3.05;;
70838;SDS011;58464;52.298;4.852;2023-07-31T12:16:44;12.13;;;3.15;;
70838;SDS011;58464;52.298;4.852;2023-07-31T12:19:10;7.80;;;2.77;;
70838;SDS011;58464;52.298;4.852;2023-07-31T12:21:36;5.13;;;1.55;;
70838;SDS011;58464;52.298;4.852;2023-07-31T12:24:03;11.20;;;1.83;;
70838;SDS011;58464;52.298;4.852;2023-07-31T12:26:33;8.52;;;2.38;;
70838;SDS011;58464;52.298;4.852;2023-07-31T12:28:59;8.30;;;2.40;;
70838;SDS011;58464;52.298;4.852;2023-07-31T12:31:25;13.63;;;2.70;;
70838;SDS011;58464;52.298;4.852;2023-07-31T12:33:55;8.25;;;2.40;;
70838;SDS011;58464;52.298;4.852;2023-07-31T12:36:22;8.82;;;2.67;;
70838;SDS011;58464;52.298;4.852;2023-07-31T12:38:49;17.20;;;3.30;;
70838;SDS011;58464;52.298;4.852;2023-07-31T12:41:14;7.40;;;1.95;;
70838;SDS011;58464;52.298;4.852;2023-07-31T12:43:41;9.40;;;2.97;;
70838;SDS011;58464;52.298;4.852;2023-07-31T12:46:08;7.75;;;2.15;;
70838;SDS011;58464;52.298;4.852;2023-07-31T12:48:33;7.22;;;2.20;;
70838;SDS011;58464;52.298;4.852;2023-07-31T12:50:59;5.28;;;1.50;;
70838;SDS011;58464;52.298;4.852;2023-07-31T12:53:26;8.77;;;2.30;;
70838;SDS011;58464;52.298;4.852;2023-07-31T12:55:52;7.20;;;2.17;;
70838;SDS011;58464;52.298;4.852;2023-07-31T12:58:17;6.07;;;1.73;;
70838;SDS011;58464;52.298;4.852;2023-07-31T13:00:43;6.87;;;2.00;;
70838;SDS011;58464;52.298;4.852;2023-07-31T13:03:08;9.02;;;2.38;;
70838;SDS011;58464;52.298;4.852;2023-07-31T13:05:33;13.17;;;2.80;;
70838;SDS011;58464;52.298;4.852;2023-07-31T13:07:58;4.87;;;1.83;;
70838;SDS011;58464;52.298;4.852;2023-07-31T13:10:24;5.83;;;2.27;;
70838;SDS011;58464;52.298;4.852;2023-07-31T13:12:50;8.70;;;2.35;;
70838;SDS011;58464;52.298;4.852;2023-07-31T13:15:16;9.97;;;2.30;;
70838;SDS011;58464;52.298;4.852;2023-07-31T13:17:41;9.18;;;2.00;;
70838;SDS011;58464;52.298;4.852;2023-07-31T13:20:07;10.30;;;2.53;;
70838;SDS011;58464;52.298;4.852;2023-07-31T13:22:34;10.20;;;2.83;;
70838;SDS011;58464;52.298;4.852;2023-07-31T13:24:59;13.40;;;2.43;;
70838;SDS011;58464;52.298;4.852;2023-07-31T13:27:25;9.37;;;3.40;;
70838;SDS011;58464;52.298;4.852;2023-07-31T13:29:51;12.95;;;2.33;;
70838;SDS011;58464;52.298;4.852;2023-07-31T13:32:17;8.82;;;2.33;;
70838;SDS011;58464;52.298;4.852;2023-07-31T13:34:44;7.60;;;1.80;;
70838;SDS011;58464;52.298;4.852;2023-07-31T13:37:09;7.70;;;2.42;;
70838;SDS011;58464;52.298;4.852;2023-07-31T13:39:35;8.55;;;2.88;;
70838;SDS011;58464;52.298;4.852;2023-07-31T13:42:00;7.78;;;2.67;;
70838;SDS011;58464;52.298;4.852;2023-07-31T13:44:26;8.52;;;2.58;;
70838;SDS011;58464;52.298;4.852;2023-07-31T13:46:52;8.15;;;2.13;;
70838;SDS011;58464;52.298;4.852;2023-07-31T13:49:17;8.70;;;1.80;;
70838;SDS011;58464;52.298;4.852;2023-07-31T13:51:42;6.57;;;1.60;;
70838;SDS011;58464;52.298;4.852;2023-07-31T13:54:08;5.85;;;1.20;;
70838;SDS011;58464;52.298;4.852;2023-07-31T13:56:35;4.80;;;1.50;;
70838;SDS011;58464;52.298;4.852;2023-07-31T13:59:00;4.45;;;2.05;;
70838;SDS011;58464;52.298;4.852;2023-07-31T14:01:26;4.93;;;1.60;;
70838;SDS011;58464;52.298;4.852;2023-07-31T14:03:51;6.38;;;1.60;;
70838;SDS011;58464;52.298;4.852;2023-07-31T14:06:17;3.55;;;1.13;;
70838;SDS011;58464;52.298;4.852;2023-07-31T14:08:42;5.32;;;2.10;;
70838;SDS011;58464;52.298;4.852;2023-07-31T14:11:08;4.25;;;1.92;;
70838;SDS011;58464;52.298;4.852;2023-07-31T14:13:35;4.03;;;1.50;;
70838;SDS011;58464;52.298;4.852;2023-07-31T14:16:00;4.83;;;1.53;;
70838;SDS011;58464;52.298;4.852;2023-07-31T14:18:25;5.40;;;1.40;;
70838;SDS011;58464;52.298;4.852;2023-07-31T14:20:51;3.03;;;1.13;;
70838;SDS011;58464;52.298;4.852;2023-07-31T14:23:16;4.45;;;1.67;;
70838;SDS011;58464;52.298;4.852;2023-07-31T14:25:42;6.85;;;1.65;;
70838;SDS011;58464;52.298;4.852;2023-07-31T14:28:09;4.25;;;2.10;;
70838;SDS011;58464;52.298;4.852;2023-07-31T14:30:34;7.68;;;1.80;;
70838;SDS011;58464;52.298;4.852;2023-07-31T14:32:59;11.52;;;2.90;;
70838;SDS011;58464;52.298;4.852;2023-07-31T14:35:25;12.57;;;3.15;;
70838;SDS011;58464;52.298;4.852;2023-07-31T14:37:51;11.48;;;2.38;;
70838;SDS011;58464;52.298;4.852;2023-07-31T14:40:16;13.30;;;3.17;;
70838;SDS011;58464;52.298;4.852;2023-07-31T14:42:41;16.67;;;3.37;;
70838;SDS011;58464;52.298;4.852;2023-07-31T14:45:08;10.75;;;2.80;;
70838;SDS011;58464;52.298;4.852;2023-07-31T14:47:35;13.32;;;3.60;;
70838;SDS011;58464;52.298;4.852;2023-07-31T14:50:00;14.98;;;3.70;;